Weather at Paris-Orly Airport

Public forecast

Using degrees Celsius for public forecast. Weather courtesy of forecast.io.

Current aviation weather report (METAR) for Paris-Orly Airport

2024/05/19 07:30 (retrieved 14 minutes ago)

LFPO 190730Z VRB02KT 9999 FEW017 BKN024 15/13 Q1013 NOSIG

Aviation forecast (TAF) for Paris-Orly Airport

2024/05/19 06:56 (retrieved 48 minutes ago)

TAF LFPO 190500Z 1906/2012 VRB03KT 9999 SCT020 PROB30 TEMPO 1906/1909 BKN011 BECMG 1909/1912 SCT020 PROB40 TEMPO 1910/1920 36010KT 4000 SHRA BKN025TCU PROB30 TEMPO 1912/1918 2500 -TSRA SCT014 BKN030CB PROB30 2003/2006 4000 BR PROB30 TEMPO 2006/2008 BKN008 PROB40 TEMPO 2010/2012 07010KT